sensor_id;sensor_type;location;lat;lon;timestamp;P1;durP1;ratioP1;P2;durP2;ratioP2
13432;SDS011;6789;47.678;9.158;2023-03-29T00:03:30;5.47;;;3.30;;
13432;SDS011;6789;47.678;9.158;2023-03-29T00:08:24;5.33;;;3.20;;
13432;SDS011;6789;47.678;9.158;2023-03-29T00:13:16;5.07;;;3.10;;
13432;SDS011;6789;47.678;9.158;2023-03-29T00:18:08;5.63;;;3.20;;
13432;SDS011;6789;47.678;9.158;2023-03-29T00:23:00;4.23;;;3.23;;
13432;SDS011;6789;47.678;9.158;2023-03-29T00:27:51;3.90;;;3.20;;
13432;SDS011;6789;47.678;9.158;2023-03-29T00:32:43;3.97;;;2.97;;
13432;SDS011;6789;47.678;9.158;2023-03-29T00:37:35;5.03;;;3.70;;
13432;SDS011;6789;47.678;9.158;2023-03-29T00:42:28;4.43;;;3.20;;
13432;SDS011;6789;47.678;9.158;2023-03-29T00:47:25;3.70;;;2.93;;
13432;SDS011;6789;47.678;9.158;2023-03-29T00:52:18;3.27;;;2.70;;
13432;SDS011;6789;47.678;9.158;2023-03-29T00:57:12;4.50;;;3.10;;
13432;SDS011;6789;47.678;9.158;2023-03-29T01:02:09;5.27;;;3.03;;
13432;SDS011;6789;47.678;9.158;2023-03-29T01:07:19;4.87;;;3.70;;
13432;SDS011;6789;47.678;9.158;2023-03-29T01:12:40;5.97;;;3.43;;
13432;SDS011;6789;47.678;9.158;2023-03-29T01:17:38;5.73;;;3.23;;
13432;SDS011;6789;47.678;9.158;2023-03-29T01:28:07;6.93;;;3.30;;
13432;SDS011;6789;47.678;9.158;2023-03-29T01:33:06;5.03;;;2.90;;
13432;SDS011;6789;47.678;9.158;2023-03-29T01:43:19;3.37;;;2.87;;
13432;SDS011;6789;47.678;9.158;2023-03-29T01:58:26;6.13;;;3.53;;
13432;SDS011;6789;47.678;9.158;2023-03-29T02:03:26;3.43;;;2.93;;
13432;SDS011;6789;47.678;9.158;2023-03-29T02:08:21;6.10;;;3.63;;
13432;SDS011;6789;47.678;9.158;2023-03-29T02:13:14;3.60;;;2.53;;
13432;SDS011;6789;47.678;9.158;2023-03-29T02:18:08;4.37;;;2.43;;
13432;SDS011;6789;47.678;9.158;2023-03-29T02:23:00;2.43;;;2.10;;
13432;SDS011;6789;47.678;9.158;2023-03-29T02:28:04;4.10;;;2.27;;
13432;SDS011;6789;47.678;9.158;2023-03-29T02:33:03;4.60;;;1.90;;
13432;SDS011;6789;47.678;9.158;2023-03-29T02:38:05;2.47;;;1.90;;
13432;SDS011;6789;47.678;9.158;2023-03-29T02:43:01;2.93;;;1.90;;
13432;SDS011;6789;47.678;9.158;2023-03-29T02:47:55;2.60;;;2.30;;
13432;SDS011;6789;47.678;9.158;2023-03-29T02:52:57;2.53;;;1.67;;
13432;SDS011;6789;47.678;9.158;2023-03-29T02:57:56;2.23;;;1.80;;
13432;SDS011;6789;47.678;9.158;2023-03-29T03:02:48;2.30;;;1.83;;
13432;SDS011;6789;47.678;9.158;2023-03-29T03:07:41;2.70;;;2.00;;
13432;SDS011;6789;47.678;9.158;2023-03-29T03:12:33;2.93;;;2.00;;
13432;SDS011;6789;47.678;9.158;2023-03-29T03:17:25;3.37;;;2.00;;
13432;SDS011;6789;47.678;9.158;2023-03-29T03:22:16;4.63;;;2.10;;
13432;SDS011;6789;47.678;9.158;2023-03-29T03:27:08;2.73;;;2.17;;
13432;SDS011;6789;47.678;9.158;2023-03-29T03:32:00;2.70;;;2.10;;
13432;SDS011;6789;47.678;9.158;2023-03-29T03:36:52;2.53;;;1.90;;
13432;SDS011;6789;47.678;9.158;2023-03-29T03:41:44;2.80;;;2.10;;
13432;SDS011;6789;47.678;9.158;2023-03-29T03:46:36;1.87;;;1.73;;
13432;SDS011;6789;47.678;9.158;2023-03-29T03:51:28;3.57;;;1.70;;
13432;SDS011;6789;47.678;9.158;2023-03-29T03:56:20;1.97;;;1.77;;
13432;SDS011;6789;47.678;9.158;2023-03-29T04:01:11;3.43;;;2.00;;
13432;SDS011;6789;47.678;9.158;2023-03-29T04:06:03;3.47;;;2.07;;
13432;SDS011;6789;47.678;9.158;2023-03-29T04:11:11;3.47;;;1.73;;
13432;SDS011;6789;47.678;9.158;2023-03-29T04:16:03;3.60;;;2.20;;
13432;SDS011;6789;47.678;9.158;2023-03-29T04:20:57;5.03;;;1.90;;
13432;SDS011;6789;47.678;9.158;2023-03-29T04:25:52;4.57;;;2.13;;
13432;SDS011;6789;47.678;9.158;2023-03-29T04:30:46;6.03;;;2.63;;
13432;SDS011;6789;47.678;9.158;2023-03-29T04:35:39;9.40;;;2.13;;
13432;SDS011;6789;47.678;9.158;2023-03-29T04:40:30;5.73;;;2.30;;
13432;SDS011;6789;47.678;9.158;2023-03-29T04:45:23;8.23;;;2.70;;
13432;SDS011;6789;47.678;9.158;2023-03-29T04:50:15;5.03;;;2.80;;
13432;SDS011;6789;47.678;9.158;2023-03-29T04:55:07;3.93;;;2.70;;
13432;SDS011;6789;47.678;9.158;2023-03-29T05:00:16;3.43;;;2.40;;
13432;SDS011;6789;47.678;9.158;2023-03-29T05:05:12;5.57;;;2.07;;
13432;SDS011;6789;47.678;9.158;2023-03-29T05:10:04;3.23;;;2.27;;
13432;SDS011;6789;47.678;9.158;2023-03-29T05:15:03;3.87;;;2.50;;
13432;SDS011;6789;47.678;9.158;2023-03-29T05:19:55;4.93;;;2.07;;
13432;SDS011;6789;47.678;9.158;2023-03-29T05:24:47;6.97;;;2.43;;
13432;SDS011;6789;47.678;9.158;2023-03-29T05:29:40;7.97;;;3.13;;
13432;SDS011;6789;47.678;9.158;2023-03-29T05:34:32;9.30;;;3.30;;
13432;SDS011;6789;47.678;9.158;2023-03-29T05:39:24;5.10;;;2.20;;
13432;SDS011;6789;47.678;9.158;2023-03-29T05:44:16;3.70;;;1.50;;
13432;SDS011;6789;47.678;9.158;2023-03-29T05:49:07;13.77;;;2.17;;
13432;SDS011;6789;47.678;9.158;2023-03-29T05:53:59;12.17;;;4.30;;
13432;SDS011;6789;47.678;9.158;2023-03-29T05:58:54;7.40;;;1.50;;
13432;SDS011;6789;47.678;9.158;2023-03-29T06:03:47;4.27;;;1.77;;
13432;SDS011;6789;47.678;9.158;2023-03-29T06:08:39;5.70;;;1.87;;
13432;SDS011;6789;47.678;9.158;2023-03-29T06:13:31;7.17;;;2.00;;
13432;SDS011;6789;47.678;9.158;2023-03-29T06:18:24;6.13;;;1.97;;
13432;SDS011;6789;47.678;9.158;2023-03-29T06:23:30;6.30;;;2.10;;
13432;SDS011;6789;47.678;9.158;2023-03-29T06:28:25;3.90;;;1.40;;
13432;SDS011;6789;47.678;9.158;2023-03-29T06:33:17;6.67;;;1.67;;
13432;SDS011;6789;47.678;9.158;2023-03-29T06:38:15;3.43;;;1.40;;
13432;SDS011;6789;47.678;9.158;2023-03-29T06:43:07;3.03;;;1.23;;
13432;SDS011;6789;47.678;9.158;2023-03-29T06:47:59;3.40;;;0.87;;
13432;SDS011;6789;47.678;9.158;2023-03-29T06:52:52;3.07;;;1.00;;
13432;SDS011;6789;47.678;9.158;2023-03-29T06:57:44;4.13;;;1.07;;
13432;SDS011;6789;47.678;9.158;2023-03-29T07:02:35;5.10;;;1.50;;
13432;SDS011;6789;47.678;9.158;2023-03-29T07:07:29;1.47;;;1.10;;
13432;SDS011;6789;47.678;9.158;2023-03-29T07:12:34;2.93;;;1.20;;
13432;SDS011;6789;47.678;9.158;2023-03-29T07:17:26;2.40;;;1.10;;
13432;SDS011;6789;47.678;9.158;2023-03-29T07:22:25;1.33;;;1.00;;
13432;SDS011;6789;47.678;9.158;2023-03-29T07:27:17;6.13;;;1.03;;
13432;SDS011;6789;47.678;9.158;2023-03-29T07:32:11;10.13;;;1.90;;
13432;SDS011;6789;47.678;9.158;2023-03-29T07:37:03;5.27;;;1.23;;
13432;SDS011;6789;47.678;9.158;2023-03-29T07:41:56;6.77;;;1.53;;
13432;SDS011;6789;47.678;9.158;2023-03-29T07:46:48;9.27;;;1.80;;
13432;SDS011;6789;47.678;9.158;2023-03-29T07:51:40;4.33;;;1.40;;
13432;SDS011;6789;47.678;9.158;2023-03-29T07:56:32;4.30;;;1.50;;
13432;SDS011;6789;47.678;9.158;2023-03-29T08:01:26;2.77;;;1.37;;
13432;SDS011;6789;47.678;9.158;2023-03-29T08:06:17;2.33;;;1.30;;
13432;SDS011;6789;47.678;9.158;2023-03-29T08:11:09;2.37;;;1.57;;
13432;SDS011;6789;47.678;9.158;2023-03-29T08:16:01;4.33;;;1.30;;
13432;SDS011;6789;47.678;9.158;2023-03-29T08:20:53;1.80;;;1.20;;
13432;SDS011;6789;47.678;9.158;2023-03-29T08:25:47;4.77;;;1.23;;
13432;SDS011;6789;47.678;9.158;2023-03-29T08:30:51;8.17;;;1.60;;
13432;SDS011;6789;47.678;9.158;2023-03-29T08:35:43;8.10;;;1.60;;
13432;SDS011;6789;47.678;9.158;2023-03-29T08:40:35;3.87;;;1.50;;
13432;SDS011;6789;47.678;9.158;2023-03-29T08:50:45;7.73;;;1.60;;
13432;SDS011;6789;47.678;9.158;2023-03-29T08:55:57;8.77;;;1.53;;
13432;SDS011;6789;47.678;9.158;2023-03-29T09:01:09;6.13;;;1.50;;
13432;SDS011;6789;47.678;9.158;2023-03-29T09:06:17;8.50;;;2.03;;
13432;SDS011;6789;47.678;9.158;2023-03-29T09:16:51;9.23;;;2.07;;
13432;SDS011;6789;47.678;9.158;2023-03-29T09:27:17;7.17;;;2.13;;
13432;SDS011;6789;47.678;9.158;2023-03-29T09:32:28;7.07;;;1.57;;
13432;SDS011;6789;47.678;9.158;2023-03-29T09:37:30;5.87;;;1.73;;
13432;SDS011;6789;47.678;9.158;2023-03-29T09:42:39;4.23;;;1.53;;
13432;SDS011;6789;47.678;9.158;2023-03-29T09:47:42;3.43;;;1.50;;
13432;SDS011;6789;47.678;9.158;2023-03-29T09:52:49;1.48;;;1.10;;
13432;SDS011;6789;47.678;9.158;2023-03-29T09:57:41;3.10;;;1.20;;
13432;SDS011;6789;47.678;9.158;2023-03-29T10:02:34;1.48;;;0.88;;
13432;SDS011;6789;47.678;9.158;2023-03-29T10:07:38;1.65;;;1.30;;
13432;SDS011;6789;47.678;9.158;2023-03-29T10:12:46;3.30;;;0.93;;
13432;SDS011;6789;47.678;9.158;2023-03-29T10:17:48;2.22;;;1.20;;
13432;SDS011;6789;47.678;9.158;2023-03-29T10:22:57;2.20;;;1.00;;
13432;SDS011;6789;47.678;9.158;2023-03-29T10:28:08;1.48;;;0.98;;
13432;SDS011;6789;47.678;9.158;2023-03-29T10:33:17;9.10;;;3.60;;
13432;SDS011;6789;47.678;9.158;2023-03-29T10:38:25;3.25;;;0.90;;
13432;SDS011;6789;47.678;9.158;2023-03-29T10:43:34;4.43;;;1.45;;
13432;SDS011;6789;47.678;9.158;2023-03-29T10:48:46;1.92;;;1.20;;
13432;SDS011;6789;47.678;9.158;2023-03-29T10:53:57;4.38;;;1.08;;
13432;SDS011;6789;47.678;9.158;2023-03-29T11:04:29;4.65;;;1.33;;
13432;SDS011;6789;47.678;9.158;2023-03-29T11:15:02;2.55;;;1.00;;
13432;SDS011;6789;47.678;9.158;2023-03-29T11:26:45;2.42;;;0.98;;
13432;SDS011;6789;47.678;9.158;2023-03-29T11:42:43;3.85;;;1.38;;
13432;SDS011;6789;47.678;9.158;2023-03-29T11:47:41;4.03;;;1.35;;
13432;SDS011;6789;47.678;9.158;2023-03-29T11:52:53;3.10;;;1.13;;
13432;SDS011;6789;47.678;9.158;2023-03-29T11:58:21;7.43;;;1.63;;
13432;SDS011;6789;47.678;9.158;2023-03-29T12:03:36;2.42;;;1.30;;
13432;SDS011;6789;47.678;9.158;2023-03-29T12:09:18;6.13;;;1.88;;
13432;SDS011;6789;47.678;9.158;2023-03-29T12:14:43;5.93;;;2.08;;
13432;SDS011;6789;47.678;9.158;2023-03-29T12:20:02;2.65;;;1.23;;
13432;SDS011;6789;47.678;9.158;2023-03-29T12:25:24;3.45;;;1.10;;
13432;SDS011;6789;47.678;9.158;2023-03-29T12:30:35;3.83;;;1.20;;
13432;SDS011;6789;47.678;9.158;2023-03-29T12:41:33;6.25;;;1.65;;
13432;SDS011;6789;47.678;9.158;2023-03-29T12:46:30;3.45;;;1.30;;
13432;SDS011;6789;47.678;9.158;2023-03-29T12:51:28;3.33;;;1.02;;
13432;SDS011;6789;47.678;9.158;2023-03-29T12:56:33;4.22;;;1.40;;
13432;SDS011;6789;47.678;9.158;2023-03-29T13:01:59;2.63;;;1.25;;
13432;SDS011;6789;47.678;9.158;2023-03-29T13:22:52;2.88;;;1.25;;
13432;SDS011;6789;47.678;9.158;2023-03-29T13:38:58;4.40;;;1.20;;
13432;SDS011;6789;47.678;9.158;2023-03-29T13:43:57;2.53;;;1.15;;
13432;SDS011;6789;47.678;9.158;2023-03-29T13:48:51;9.05;;;1.90;;
13432;SDS011;6789;47.678;9.158;2023-03-29T13:54:00;3.60;;;1.30;;
13432;SDS011;6789;47.678;9.158;2023-03-29T13:59:19;5.82;;;1.30;;
13432;SDS011;6789;47.678;9.158;2023-03-29T14:04:23;4.97;;;1.45;;
13432;SDS011;6789;47.678;9.158;2023-03-29T14:09:21;3.95;;;1.17;;
13432;SDS011;6789;47.678;9.158;2023-03-29T14:14:20;4.25;;;1.27;;
13432;SDS011;6789;47.678;9.158;2023-03-29T14:19:17;2.45;;;1.42;;
13432;SDS011;6789;47.678;9.158;2023-03-29T14:24:24;3.40;;;1.20;;
13432;SDS011;6789;47.678;9.158;2023-03-29T14:29:39;5.57;;;1.40;;
13432;SDS011;6789;47.678;9.158;2023-03-29T14:34:36;2.85;;;1.20;;
13432;SDS011;6789;47.678;9.158;2023-03-29T14:39:43;5.93;;;1.92;;
13432;SDS011;6789;47.678;9.158;2023-03-29T14:44:37;4.05;;;1.63;;
13432;SDS011;6789;47.678;9.158;2023-03-29T14:49:30;2.67;;;1.40;;
13432;SDS011;6789;47.678;9.158;2023-03-29T14:54:25;3.90;;;1.23;;
13432;SDS011;6789;47.678;9.158;2023-03-29T14:59:47;8.68;;;1.90;;
13432;SDS011;6789;47.678;9.158;2023-03-29T15:04:44;6.43;;;1.50;;
13432;SDS011;6789;47.678;9.158;2023-03-29T15:09:53;4.45;;;1.35;;
13432;SDS011;6789;47.678;9.158;2023-03-29T15:14:48;6.93;;;1.40;;
13432;SDS011;6789;47.678;9.158;2023-03-29T15:19:42;3.47;;;1.08;;
13432;SDS011;6789;47.678;9.158;2023-03-29T15:24:55;4.18;;;1.27;;
13432;SDS011;6789;47.678;9.158;2023-03-29T15:29:57;4.38;;;1.40;;
13432;SDS011;6789;47.678;9.158;2023-03-29T15:34:57;4.47;;;1.40;;
13432;SDS011;6789;47.678;9.158;2023-03-29T15:39:55;3.35;;;1.75;;
13432;SDS011;6789;47.678;9.158;2023-03-29T15:44:48;2.72;;;1.55;;
13432;SDS011;6789;47.678;9.158;2023-03-29T15:49:46;4.45;;;1.23;;
13432;SDS011;6789;47.678;9.158;2023-03-29T15:54:52;3.55;;;1.20;;
13432;SDS011;6789;47.678;9.158;2023-03-29T15:59:44;6.60;;;1.75;;
13432;SDS011;6789;47.678;9.158;2023-03-29T16:04:36;13.40;;;1.90;;
13432;SDS011;6789;47.678;9.158;2023-03-29T16:09:27;5.80;;;1.52;;
13432;SDS011;6789;47.678;9.158;2023-03-29T16:14:23;2.45;;;1.15;;
13432;SDS011;6789;47.678;9.158;2023-03-29T16:19:18;7.95;;;1.35;;
13432;SDS011;6789;47.678;9.158;2023-03-29T16:24:14;5.20;;;1.50;;
13432;SDS011;6789;47.678;9.158;2023-03-29T16:29:10;4.65;;;1.50;;
13432;SDS011;6789;47.678;9.158;2023-03-29T16:34:11;3.50;;;0.95;;
13432;SDS011;6789;47.678;9.158;2023-03-29T16:39:10;4.80;;;1.40;;
13432;SDS011;6789;47.678;9.158;2023-03-29T16:44:03;2.85;;;1.65;;
13432;SDS011;6789;47.678;9.158;2023-03-29T16:48:55;3.08;;;1.30;;
13432;SDS011;6789;47.678;9.158;2023-03-29T16:53:48;5.88;;;1.92;;
13432;SDS011;6789;47.678;9.158;2023-03-29T16:58:41;6.43;;;1.98;;
13432;SDS011;6789;47.678;9.158;2023-03-29T17:03:36;3.42;;;1.27;;
13432;SDS011;6789;47.678;9.158;2023-03-29T17:08:48;6.90;;;1.80;;
13432;SDS011;6789;47.678;9.158;2023-03-29T17:13:40;4.45;;;1.60;;
13432;SDS011;6789;47.678;9.158;2023-03-29T17:18:46;7.43;;;1.60;;
13432;SDS011;6789;47.678;9.158;2023-03-29T17:23:52;7.43;;;2.13;;
13432;SDS011;6789;47.678;9.158;2023-03-29T17:28:45;7.47;;;1.95;;
13432;SDS011;6789;47.678;9.158;2023-03-29T17:33:38;5.55;;;1.42;;
13432;SDS011;6789;47.678;9.158;2023-03-29T17:38:45;6.63;;;1.65;;
13432;SDS011;6789;47.678;9.158;2023-03-29T17:43:53;6.57;;;1.90;;
13432;SDS011;6789;47.678;9.158;2023-03-29T17:48:49;9.40;;;2.25;;
13432;SDS011;6789;47.678;9.158;2023-03-29T17:53:42;6.35;;;2.10;;
13432;SDS011;6789;47.678;9.158;2023-03-29T17:58:48;7.30;;;1.85;;
13432;SDS011;6789;47.678;9.158;2023-03-29T18:03:55;8.75;;;2.05;;
13432;SDS011;6789;47.678;9.158;2023-03-29T18:08:46;6.13;;;2.35;;
13432;SDS011;6789;47.678;9.158;2023-03-29T18:13:38;5.75;;;1.92;;
13432;SDS011;6789;47.678;9.158;2023-03-29T18:18:30;10.35;;;1.60;;
13432;SDS011;6789;47.678;9.158;2023-03-29T18:23:23;7.32;;;1.92;;
13432;SDS011;6789;47.678;9.158;2023-03-29T18:28:15;6.30;;;1.75;;
13432;SDS011;6789;47.678;9.158;2023-03-29T18:33:08;10.27;;;1.70;;
13432;SDS011;6789;47.678;9.158;2023-03-29T18:38:00;5.72;;;1.60;;
13432;SDS011;6789;47.678;9.158;2023-03-29T18:42:53;8.77;;;2.10;;
13432;SDS011;6789;47.678;9.158;2023-03-29T18:47:44;8.80;;;1.92;;
13432;SDS011;6789;47.678;9.158;2023-03-29T18:52:36;6.45;;;1.80;;
13432;SDS011;6789;47.678;9.158;2023-03-29T18:57:28;6.13;;;1.80;;
13432;SDS011;6789;47.678;9.158;2023-03-29T19:02:20;9.18;;;1.52;;
13432;SDS011;6789;47.678;9.158;2023-03-29T19:07:12;5.15;;;1.65;;
13432;SDS011;6789;47.678;9.158;2023-03-29T19:12:04;5.43;;;1.83;;
13432;SDS011;6789;47.678;9.158;2023-03-29T19:16:56;6.97;;;1.67;;
13432;SDS011;6789;47.678;9.158;2023-03-29T19:21:48;7.45;;;2.00;;
13432;SDS011;6789;47.678;9.158;2023-03-29T19:26:40;10.27;;;1.98;;
13432;SDS011;6789;47.678;9.158;2023-03-29T19:31:38;6.22;;;1.90;;
13432;SDS011;6789;47.678;9.158;2023-03-29T19:36:30;5.53;;;1.90;;
13432;SDS011;6789;47.678;9.158;2023-03-29T19:41:22;6.33;;;2.27;;
13432;SDS011;6789;47.678;9.158;2023-03-29T19:46:13;5.23;;;2.37;;
13432;SDS011;6789;47.678;9.158;2023-03-29T19:51:06;10.27;;;2.07;;
13432;SDS011;6789;47.678;9.158;2023-03-29T19:55:58;6.50;;;1.92;;
13432;SDS011;6789;47.678;9.158;2023-03-29T20:00:52;8.77;;;2.27;;
13432;SDS011;6789;47.678;9.158;2023-03-29T20:05:48;6.13;;;1.80;;
13432;SDS011;6789;47.678;9.158;2023-03-29T20:10:40;8.68;;;2.08;;
13432;SDS011;6789;47.678;9.158;2023-03-29T20:15:32;5.68;;;1.80;;
13432;SDS011;6789;47.678;9.158;2023-03-29T20:20:25;9.35;;;2.00;;
13432;SDS011;6789;47.678;9.158;2023-03-29T20:25:18;6.70;;;1.65;;
13432;SDS011;6789;47.678;9.158;2023-03-29T20:30:11;7.30;;;1.80;;
13432;SDS011;6789;47.678;9.158;2023-03-29T20:35:04;6.93;;;1.88;;
13432;SDS011;6789;47.678;9.158;2023-03-29T20:39:56;7.30;;;1.83;;
13432;SDS011;6789;47.678;9.158;2023-03-29T20:44:49;7.38;;;2.30;;
13432;SDS011;6789;47.678;9.158;2023-03-29T20:49:43;4.18;;;1.90;;
13432;SDS011;6789;47.678;9.158;2023-03-29T20:54:35;11.40;;;2.35;;
13432;SDS011;6789;47.678;9.158;2023-03-29T20:59:28;8.40;;;2.10;;
13432;SDS011;6789;47.678;9.158;2023-03-29T21:04:20;6.63;;;2.58;;
13432;SDS011;6789;47.678;9.158;2023-03-29T21:09:13;5.35;;;2.17;;
13432;SDS011;6789;47.678;9.158;2023-03-29T21:14:06;6.47;;;2.00;;
13432;SDS011;6789;47.678;9.158;2023-03-29T21:18:59;6.72;;;1.85;;
13432;SDS011;6789;47.678;9.158;2023-03-29T21:23:51;7.57;;;2.20;;
13432;SDS011;6789;47.678;9.158;2023-03-29T21:28:42;6.57;;;2.45;;
13432;SDS011;6789;47.678;9.158;2023-03-29T21:33:34;5.45;;;1.90;;
13432;SDS011;6789;47.678;9.158;2023-03-29T21:38:26;13.52;;;2.75;;
13432;SDS011;6789;47.678;9.158;2023-03-29T21:43:18;10.38;;;2.63;;
13432;SDS011;6789;47.678;9.158;2023-03-29T21:48:11;4.70;;;1.85;;
13432;SDS011;6789;47.678;9.158;2023-03-29T21:53:02;10.77;;;1.90;;
13432;SDS011;6789;47.678;9.158;2023-03-29T21:57:54;9.82;;;2.47;;
13432;SDS011;6789;47.678;9.158;2023-03-29T22:02:47;7.18;;;1.80;;
13432;SDS011;6789;47.678;9.158;2023-03-29T22:07:53;8.52;;;2.30;;
13432;SDS011;6789;47.678;9.158;2023-03-29T22:12:49;12.63;;;3.13;;
13432;SDS011;6789;47.678;9.158;2023-03-29T22:17:41;7.15;;;2.38;;
13432;SDS011;6789;47.678;9.158;2023-03-29T22:22:33;6.20;;;2.33;;
13432;SDS011;6789;47.678;9.158;2023-03-29T22:27:25;10.35;;;1.95;;
13432;SDS011;6789;47.678;9.158;2023-03-29T22:32:17;8.40;;;1.80;;
13432;SDS011;6789;47.678;9.158;2023-03-29T22:37:08;12.00;;;2.47;;
13432;SDS011;6789;47.678;9.158;2023-03-29T22:42:00;8.23;;;2.87;;
13432;SDS011;6789;47.678;9.158;2023-03-29T22:46:52;6.17;;;2.40;;
13432;SDS011;6789;47.678;9.158;2023-03-29T22:51:58;9.83;;;1.90;;
13432;SDS011;6789;47.678;9.158;2023-03-29T22:56:51;12.73;;;2.33;;
13432;SDS011;6789;47.678;9.158;2023-03-29T23:01:43;15.17;;;2.70;;
13432;SDS011;6789;47.678;9.158;2023-03-29T23:06:48;7.40;;;1.70;;
13432;SDS011;6789;47.678;9.158;2023-03-29T23:11:40;5.43;;;2.10;;
13432;SDS011;6789;47.678;9.158;2023-03-29T23:16:32;9.80;;;1.97;;
13432;SDS011;6789;47.678;9.158;2023-03-29T23:21:39;6.07;;;1.40;;
13432;SDS011;6789;47.678;9.158;2023-03-29T23:26:30;7.80;;;1.40;;
13432;SDS011;6789;47.678;9.158;2023-03-29T23:31:23;7.17;;;1.53;;
13432;SDS011;6789;47.678;9.158;2023-03-29T23:36:16;8.30;;;1.80;;
13432;SDS011;6789;47.678;9.158;2023-03-29T23:41:09;6.20;;;1.50;;
13432;SDS011;6789;47.678;9.158;2023-03-29T23:46:03;7.93;;;2.37;;
13432;SDS011;6789;47.678;9.158;2023-03-29T23:51:02;5.73;;;1.43;;
13432;SDS011;6789;47.678;9.158;2023-03-29T23:55:56;7.17;;;2.30;;
